createdAt,value
2018-05-04T00:01:43.313Z,98346.60
2018-05-04T00:04:10.779Z,98347.96
2018-05-04T00:06:38.222Z,98347.84
2018-05-04T00:09:05.658Z,98345.78
2018-05-04T00:11:33.104Z,98344.45
2018-05-04T00:14:00.554Z,98338.07
2018-05-04T00:16:28.482Z,98338.14
2018-05-04T00:18:55.918Z,98342.57
2018-05-04T00:21:23.382Z,98337.58
2018-05-04T00:23:50.868Z,98330.97
2018-05-04T00:26:18.306Z,98331.59
2018-05-04T00:28:45.830Z,98328.88
2018-05-04T00:31:13.563Z,98325.69
2018-05-04T00:33:41.089Z,98329.95
2018-05-04T00:36:08.519Z,98325.84
2018-05-04T00:38:35.976Z,98327.58
2018-05-04T00:41:03.445Z,98324.17
2018-05-04T00:43:30.888Z,98309.57
2018-05-04T00:45:58.329Z,98305.75
2018-05-04T00:48:25.766Z,98302.02
2018-05-04T00:50:53.220Z,98308.37
2018-05-04T00:53:20.670Z,98308.28
2018-05-04T00:55:48.117Z,98309.99
2018-05-04T00:58:15.574Z,98311.88
2018-05-04T01:00:43.020Z,98307.27
2018-05-04T01:03:10.464Z,98299.97
2018-05-04T01:05:37.892Z,98304.46
2018-05-04T01:08:05.330Z,98306.75
2018-05-04T01:10:32.777Z,98313.52
2018-05-04T01:13:00.241Z,98311.77
2018-05-04T01:15:27.726Z,98318.71
2018-05-04T01:17:55.212Z,98316.72
2018-05-04T01:20:22.685Z,98327.58
2018-05-04T01:22:50.117Z,98335.84
2018-05-04T01:25:17.747Z,98338.33
2018-05-04T01:27:45.206Z,98341.96
2018-05-04T01:30:12.729Z,98338.36
2018-05-04T01:32:40.193Z,98338.41
2018-05-04T01:35:07.650Z,98331.12
2018-05-04T01:37:35.110Z,98327.11
2018-05-04T01:40:02.550Z,98340.34
2018-05-04T01:42:30.090Z,98343.45
2018-05-04T01:44:57.528Z,98341.81
2018-05-04T01:47:24.957Z,98336.00
2018-05-04T01:49:52.392Z,98341.02
2018-05-04T01:52:19.926Z,98345.34
2018-05-04T01:54:47.369Z,98341.81
2018-05-04T01:57:14.816Z,98349.45
2018-05-04T01:59:42.352Z,98349.06
2018-05-04T02:02:09.794Z,98350.31
2018-05-04T02:04:37.308Z,98354.16
2018-05-04T02:07:04.749Z,98350.66
2018-05-04T02:09:32.537Z,98358.67
2018-05-04T02:11:59.997Z,98356.11
2018-05-04T02:14:27.462Z,98354.90
2018-05-04T02:16:54.909Z,98362.81
2018-05-04T02:19:22.377Z,98358.82
2018-05-04T02:21:49.826Z,98344.78
2018-05-04T02:24:17.369Z,98348.59
2018-05-04T02:26:44.836Z,98343.19
2018-05-04T02:29:12.293Z,98341.83
2018-05-04T02:31:39.856Z,98343.25
2018-05-04T02:34:07.312Z,98343.92
2018-05-04T02:36:34.777Z,98349.09
2018-05-04T02:39:02.220Z,98351.17
2018-05-04T02:41:29.693Z,98353.86
2018-05-04T02:43:57.137Z,98348.50
2018-05-04T02:46:24.591Z,98353.70
2018-05-04T02:48:52.060Z,98359.10
2018-05-04T02:51:19.523Z,98364.92
2018-05-04T02:53:47.678Z,98363.53
2018-05-04T02:56:15.126Z,98360.80
2018-05-04T02:58:42.659Z,98360.74
2018-05-04T03:01:10.138Z,98358.28
2018-05-04T03:03:37.621Z,98357.98
2018-05-04T03:06:05.087Z,98352.34
2018-05-04T03:08:32.611Z,98353.91
2018-05-04T03:11:00.059Z,98357.98
2018-05-04T03:13:27.505Z,98351.38
2018-05-04T03:15:55.056Z,98353.38
2018-05-04T03:18:22.553Z,98355.77
2018-05-04T03:20:50.001Z,98362.34
2018-05-04T03:23:17.458Z,98361.98
2018-05-04T03:25:45.782Z,98358.83
2018-05-04T03:28:13.303Z,98362.02
2018-05-04T03:30:40.835Z,98371.92
2018-05-04T03:33:08.294Z,98381.42
2018-05-04T03:35:35.738Z,98382.86
2018-05-04T03:38:03.335Z,98390.98
2018-05-04T03:40:30.784Z,98388.59
2018-05-04T03:42:58.360Z,98385.48
2018-05-04T03:45:25.796Z,98389.64
2018-05-04T03:47:53.257Z,98382.53
2018-05-04T03:50:20.693Z,98390.12
2018-05-04T03:52:48.142Z,98383.64
2018-05-04T03:55:15.598Z,98388.25
2018-05-04T03:57:55.074Z,98389.62
2018-05-04T04:00:34.652Z,98389.31
2018-05-04T04:03:13.854Z,98395.52
2018-05-04T04:05:41.334Z,98393.33
2018-05-04T04:08:08.901Z,98395.02
2018-05-04T04:10:36.477Z,98393.77
2018-05-04T04:13:03.924Z,98396.34
2018-05-04T04:15:31.381Z,98394.67
2018-05-04T04:17:58.927Z,98390.34
2018-05-04T04:20:26.374Z,98393.11
2018-05-04T04:22:53.981Z,98391.02
2018-05-04T04:25:21.441Z,98388.68
2018-05-04T04:27:49.138Z,98394.09
2018-05-04T04:30:16.597Z,98400.80
2018-05-04T04:32:44.082Z,98399.53
2018-05-04T04:35:11.655Z,98397.81
2018-05-04T04:37:39.129Z,98403.60
2018-05-04T04:40:06.569Z,98401.02
2018-05-04T04:42:34.079Z,98404.05
2018-05-04T04:45:01.765Z,98403.67
2018-05-04T04:47:29.315Z,98409.63
2018-05-04T04:49:56.771Z,98407.61
2018-05-04T04:52:24.230Z,98404.85
2018-05-04T04:54:51.717Z,98407.80
2018-05-04T04:57:19.156Z,98405.87
2018-05-04T04:59:46.627Z,98407.13
2018-05-04T05:02:14.080Z,98403.42
2018-05-04T05:04:41.573Z,98408.03
2018-05-04T05:07:09.110Z,98398.20
2018-05-04T05:09:36.622Z,98403.28
2018-05-04T05:12:04.066Z,98398.50
2018-05-04T05:14:31.554Z,98404.36
2018-05-04T05:16:59.089Z,98407.03
2018-05-04T05:19:26.537Z,98406.27
2018-05-04T05:21:54.040Z,98411.31
2018-05-04T05:24:21.447Z,98401.97
2018-05-04T05:26:48.915Z,98406.72
2018-05-04T05:29:16.366Z,98400.08
2018-05-04T05:31:43.802Z,98403.34
2018-05-04T05:34:11.233Z,98401.13
2018-05-04T05:36:38.693Z,98392.36
2018-05-04T05:39:06.127Z,98393.72
2018-05-04T05:41:33.557Z,98403.73
2018-05-04T05:44:00.993Z,98399.20
2018-05-04T05:46:28.440Z,98400.41
2018-05-04T05:48:55.885Z,98400.13
2018-05-04T05:51:23.390Z,98402.22
2018-05-04T05:53:50.848Z,98403.27
2018-05-04T05:56:18.303Z,98403.83
2018-05-04T05:58:45.747Z,98401.09
2018-05-04T06:01:13.225Z,98411.59
2018-05-04T06:03:41.339Z,98412.62
2018-05-04T06:06:08.829Z,98417.19
2018-05-04T06:08:36.405Z,98411.94
2018-05-04T06:11:03.871Z,98421.55
2018-05-04T06:13:31.337Z,98421.24
2018-05-04T06:15:58.801Z,98425.77
2018-05-04T06:18:26.335Z,98420.73
2018-05-04T06:20:53.791Z,98424.13
2018-05-04T06:23:22.164Z,98426.34
2018-05-04T06:25:49.728Z,98426.44
2018-05-04T06:28:17.164Z,98427.64
2018-05-04T06:30:44.681Z,98425.70
2018-05-04T06:33:12.129Z,98429.02
2018-05-04T06:35:39.579Z,98424.12
2018-05-04T06:38:07.030Z,98426.19
2018-05-04T06:40:34.492Z,98415.47
2018-05-04T06:43:02.145Z,98414.59
2018-05-04T06:45:29.606Z,98418.94
2018-05-04T06:47:57.045Z,98423.41
2018-05-04T06:50:24.517Z,98423.91
2018-05-04T06:52:51.981Z,98421.58
2018-05-04T06:55:19.531Z,98423.15
2018-05-04T06:57:46.970Z,98416.31
2018-05-04T07:00:14.452Z,98428.84
2018-05-04T07:02:42.001Z,98426.88
2018-05-04T07:05:09.442Z,98418.67
2018-05-04T07:07:36.949Z,98426.78
2018-05-04T07:10:04.478Z,98427.61
2018-05-04T07:12:31.926Z,98427.60
2018-05-04T07:14:59.414Z,98434.19
2018-05-04T07:17:26.841Z,98433.91
2018-05-04T07:19:54.278Z,98419.50
2018-05-04T07:22:21.796Z,98437.03
2018-05-04T07:24:49.233Z,98434.34
2018-05-04T07:27:16.737Z,98426.02
2018-05-04T07:29:44.214Z,98428.17
2018-05-04T07:32:11.662Z,98424.25
2018-05-04T07:34:39.109Z,98418.35
2018-05-04T07:37:06.573Z,98423.03
2018-05-04T07:39:34.020Z,98420.67
2018-05-04T07:42:01.810Z,98418.16
2018-05-04T07:44:29.290Z,98429.19
2018-05-04T07:46:56.724Z,98432.33
2018-05-04T07:49:24.165Z,98437.45
2018-05-04T07:51:51.608Z,98429.23
2018-05-04T07:54:19.075Z,98427.98
2018-05-04T07:56:46.538Z,98423.34
2018-05-04T07:59:13.976Z,98424.42
2018-05-04T08:01:41.434Z,98420.09
2018-05-04T08:04:08.881Z,98424.01
2018-05-04T08:06:36.365Z,98432.33
2018-05-04T08:09:03.820Z,98427.58
2018-05-04T08:11:31.275Z,98429.92
2018-05-04T08:13:58.712Z,98430.47
2018-05-04T08:16:26.144Z,98418.44
2018-05-04T08:18:53.594Z,98421.77
2018-05-04T08:21:21.030Z,98426.59
2018-05-04T08:23:48.471Z,98426.52
2018-05-04T08:26:15.936Z,98433.72
2018-05-04T08:28:43.370Z,98432.76
2018-05-04T08:31:10.807Z,98430.67
2018-05-04T08:33:38.302Z,98433.42
2018-05-04T08:36:05.722Z,98432.13
2018-05-04T08:38:33.178Z,98426.87
2018-05-04T08:41:00.632Z,98423.90
2018-05-04T08:43:28.069Z,98426.42
2018-05-04T08:45:55.524Z,98424.58
2018-05-04T08:48:23.106Z,98425.62
2018-05-04T08:50:50.567Z,98416.31
2018-05-04T08:53:18.011Z,98418.00
2018-05-04T08:55:45.476Z,98413.36
2018-05-04T08:58:12.943Z,98414.28
2018-05-04T09:00:40.381Z,98414.33
2018-05-04T09:03:07.819Z,98412.77
2018-05-04T09:05:35.321Z,98416.89
2018-05-04T09:08:02.730Z,98418.86
2018-05-04T09:10:30.250Z,98407.78
2018-05-04T09:12:57.724Z,98415.25
2018-05-04T09:15:25.177Z,98417.80
2018-05-04T09:17:52.622Z,98411.09
2018-05-04T09:20:20.110Z,98411.47
2018-05-04T09:22:47.562Z,98414.08
2018-05-04T09:25:15.028Z,98411.44
2018-05-04T09:27:42.466Z,98410.20
2018-05-04T09:30:09.901Z,98402.53
2018-05-04T09:32:37.402Z,98405.84
2018-05-04T09:35:04.856Z,98406.30
2018-05-04T09:37:32.299Z,98407.64
2018-05-04T09:39:59.764Z,98410.28
2018-05-04T09:42:27.333Z,98408.28
2018-05-04T09:44:54.779Z,98409.84
2018-05-04T09:47:22.218Z,98411.11
2018-05-04T09:49:49.690Z,98418.52
2018-05-04T09:52:17.149Z,98413.75
2018-05-04T09:54:44.679Z,98414.52
2018-05-04T09:57:12.142Z,98409.48
2018-05-04T09:59:39.613Z,98415.15
2018-05-04T10:02:07.087Z,98423.21
2018-05-04T10:04:34.549Z,98411.62
2018-05-04T10:07:01.998Z,98410.23
2018-05-04T10:09:29.438Z,98403.80
2018-05-04T10:11:56.881Z,98400.04
2018-05-04T10:14:24.322Z,98398.20
2018-05-04T10:16:53.051Z,98388.50
2018-05-04T10:19:20.515Z,98387.15
2018-05-04T10:21:47.977Z,98387.81
2018-05-04T10:24:15.453Z,98393.82
2018-05-04T10:26:42.918Z,98388.48
2018-05-04T10:29:10.360Z,98386.09
2018-05-04T10:31:37.794Z,98383.05
2018-05-04T10:34:05.318Z,98384.78
2018-05-04T10:36:32.794Z,98389.25
2018-05-04T10:39:00.313Z,98382.58
2018-05-04T10:41:27.697Z,98387.03
2018-05-04T10:43:55.140Z,98387.28
2018-05-04T10:46:22.593Z,98383.05
2018-05-04T10:48:50.049Z,98382.95
2018-05-04T10:51:17.502Z,98378.64
2018-05-04T10:53:44.948Z,98383.78
2018-05-04T10:56:12.393Z,98384.44
2018-05-04T10:58:39.873Z,98380.72
2018-05-04T11:01:07.354Z,98386.34
2018-05-04T11:03:34.801Z,98376.58
2018-05-04T11:06:02.255Z,98385.65
2018-05-04T11:08:29.715Z,98377.47
2018-05-04T11:10:57.166Z,98379.17
2018-05-04T11:13:24.609Z,98382.30
2018-05-04T11:15:52.199Z,98375.14
2018-05-04T11:18:19.657Z,98376.05
2018-05-04T11:20:47.110Z,98374.11
2018-05-04T11:23:14.560Z,98367.45
2018-05-04T11:25:42.005Z,98372.65
2018-05-04T11:28:09.463Z,98367.56
2018-05-04T11:30:36.890Z,98368.70
2018-05-04T11:33:04.342Z,98362.77
2018-05-04T11:35:31.779Z,98359.16
2018-05-04T11:37:59.214Z,98366.47
2018-05-04T11:40:26.670Z,98360.35
2018-05-04T11:42:54.146Z,98363.95
2018-05-04T11:45:21.612Z,98359.91
2018-05-04T11:47:49.073Z,98357.30
2018-05-04T11:50:16.545Z,98359.01
2018-05-04T11:52:44.070Z,98356.51
2018-05-04T11:55:11.611Z,98356.26
2018-05-04T11:57:39.152Z,98357.16
2018-05-04T12:00:06.638Z,98355.63
2018-05-04T12:02:34.113Z,98356.27
2018-05-04T12:05:01.611Z,98357.77
2018-05-04T12:07:29.141Z,98359.13
2018-05-04T12:09:56.684Z,98354.19
2018-05-04T12:12:24.135Z,98362.77
2018-05-04T12:14:52.542Z,98361.19
2018-05-04T12:17:19.977Z,98363.46
2018-05-04T12:19:47.429Z,98354.98
2018-05-04T12:22:14.901Z,98357.32
2018-05-04T12:24:42.353Z,98360.33
2018-05-04T12:27:09.785Z,98358.00
2018-05-04T12:29:37.514Z,98339.95
2018-05-04T12:32:04.957Z,98357.13
2018-05-04T12:34:32.509Z,98353.62
2018-05-04T12:36:59.986Z,98355.05
2018-05-04T12:39:27.486Z,98357.03
2018-05-04T12:41:54.982Z,98355.07
2018-05-04T12:44:22.725Z,98350.95
2018-05-04T12:46:50.207Z,98346.26
2018-05-04T12:49:17.853Z,98350.03
2018-05-04T12:51:45.328Z,98350.58
2018-05-04T12:54:12.768Z,98345.87
2018-05-04T12:56:40.224Z,98344.73
2018-05-04T12:59:07.693Z,98345.87
2018-05-04T13:01:35.149Z,98339.50
2018-05-04T13:04:02.595Z,98340.56
2018-05-04T13:06:30.406Z,98337.88
2018-05-04T13:08:57.893Z,98338.33
2018-05-04T13:11:25.361Z,98329.43
2018-05-04T13:13:52.806Z,98332.03
2018-05-04T13:16:20.260Z,98329.59
2018-05-04T13:18:47.720Z,98331.35
2018-05-04T13:21:15.174Z,98329.13
2018-05-04T13:23:42.614Z,98319.73
2018-05-04T13:26:10.048Z,98320.18
2018-05-04T13:28:37.500Z,98310.05
2018-05-04T13:31:04.941Z,98311.66
2018-05-04T13:33:32.431Z,98307.69
2018-05-04T13:35:59.842Z,98304.02
2018-05-04T13:38:27.314Z,98311.52
2018-05-04T13:40:54.769Z,98305.07
2018-05-04T13:43:22.307Z,98297.88
2018-05-04T13:45:49.752Z,98299.09
2018-05-04T13:48:17.444Z,98299.05
2018-05-04T13:50:44.909Z,98294.30
2018-05-04T13:53:13.026Z,98292.88
2018-05-04T13:55:40.524Z,98293.44
2018-05-04T13:58:07.974Z,98308.81
2018-05-04T14:00:35.454Z,98306.97
2018-05-04T14:03:02.906Z,98304.99
2018-05-04T14:05:30.351Z,98309.60
2018-05-04T14:07:57.825Z,98317.77
2018-05-04T14:10:25.274Z,98306.26
2018-05-04T14:12:52.715Z,98303.18
2018-05-04T14:15:20.154Z,98300.48
2018-05-04T14:17:47.621Z,98300.32
2018-05-04T14:20:15.065Z,98307.53
2018-05-04T14:22:42.513Z,98308.16
2018-05-04T14:25:09.940Z,98306.61
2018-05-04T14:27:37.934Z,98302.55
2018-05-04T14:30:05.548Z,98301.34
2018-05-04T14:32:32.994Z,98296.31
2018-05-04T14:35:00.450Z,98297.56
2018-05-04T14:37:27.884Z,98298.47
2018-05-04T14:39:55.377Z,98299.84
2018-05-04T14:42:22.814Z,98302.09
2018-05-04T14:44:50.299Z,98297.56
2018-05-04T14:47:17.802Z,98302.09
2018-05-04T14:49:45.259Z,98297.66
2018-05-04T14:52:12.708Z,98295.54
2018-05-04T14:54:40.198Z,98300.33
2018-05-04T14:57:07.660Z,98300.83
2018-05-04T14:59:35.115Z,98301.09
2018-05-04T15:02:02.578Z,98303.73
2018-05-04T15:04:30.027Z,98296.27
2018-05-04T15:06:57.501Z,98302.86
2018-05-04T15:09:24.999Z,98304.01
2018-05-04T15:11:52.465Z,98300.95
2018-05-04T15:14:19.916Z,98299.85
2018-05-04T15:16:47.370Z,98303.50
2018-05-04T15:19:14.820Z,98312.17
2018-05-04T15:21:42.256Z,98307.36
2018-05-04T15:24:09.711Z,98303.98
2018-05-04T15:26:37.197Z,98309.67
2018-05-04T15:29:04.722Z,98318.83
2018-05-04T15:31:32.190Z,98309.87
2018-05-04T15:33:59.637Z,98303.14
2018-05-04T15:36:27.077Z,98311.37
2018-05-04T15:38:54.525Z,98297.94
2018-05-04T15:41:21.983Z,98307.13
2018-05-04T15:43:49.433Z,98312.68
2018-05-04T15:46:16.909Z,98317.00
2018-05-04T15:48:50.087Z,98320.43
2018-05-04T15:51:23.189Z,98312.19
2018-05-04T15:53:50.625Z,98319.42
2018-05-04T15:56:18.089Z,98311.45
2018-05-04T15:58:45.553Z,98310.84
2018-05-04T16:01:26.943Z,98308.13
2018-05-04T16:03:55.758Z,98307.29
2018-05-04T16:06:23.201Z,98314.13
2018-05-04T16:08:50.682Z,98317.68
2018-05-04T16:11:18.115Z,98319.84
2018-05-04T16:13:45.685Z,98314.75
2018-05-04T16:16:13.111Z,98316.41
2018-05-04T16:18:40.589Z,98318.36
2018-05-04T16:21:08.037Z,98317.51
2018-05-04T16:23:35.521Z,98317.77
2018-05-04T16:26:03.051Z,98323.86
2018-05-04T16:28:30.491Z,98318.96
2018-05-04T16:30:57.971Z,98318.28
2018-05-04T16:33:25.418Z,98326.28
2018-05-04T16:35:53.071Z,98322.10
2018-05-04T16:38:20.531Z,98329.80
2018-05-04T16:40:48.010Z,98321.38
2018-05-04T16:43:15.469Z,98326.92
2018-05-04T16:45:42.921Z,98326.77
2018-05-04T16:48:15.912Z,98334.08
2018-05-04T16:50:43.369Z,98334.77
2018-05-04T16:53:10.799Z,98343.11
2018-05-04T16:55:38.282Z,98346.28
2018-05-04T16:58:05.740Z,98344.89
2018-05-04T17:00:33.190Z,98351.41
2018-05-04T17:03:00.643Z,98353.34
2018-05-04T17:05:28.117Z,98356.00
2018-05-04T17:07:55.642Z,98361.76
2018-05-04T17:10:23.097Z,98361.45
2018-05-04T17:12:50.541Z,98364.70
2018-05-04T17:15:17.981Z,98358.62
2018-05-04T17:17:45.427Z,98364.09
2018-05-04T17:20:12.876Z,98365.92
2018-05-04T17:22:40.317Z,98377.75
2018-05-04T17:25:07.760Z,98376.38
2018-05-04T17:27:35.202Z,98380.63
2018-05-04T17:30:02.703Z,98388.92
2018-05-04T17:32:30.219Z,98383.52
2018-05-04T17:34:57.679Z,98394.77
2018-05-04T17:37:25.126Z,98406.81
2018-05-04T17:39:52.585Z,98408.73
2018-05-04T17:42:20.069Z,98413.53
2018-05-04T17:44:47.557Z,98413.27
2018-05-04T17:47:15.115Z,98414.22
2018-05-04T17:49:42.533Z,98418.51
2018-05-04T17:52:09.971Z,98416.49
2018-05-04T17:54:37.471Z,98424.58
2018-05-04T17:57:04.914Z,98423.20
2018-05-04T17:59:32.362Z,98433.69
2018-05-04T18:01:59.798Z,98429.83
2018-05-04T18:04:27.237Z,98433.60
2018-05-04T18:06:54.691Z,98428.31
2018-05-04T18:09:22.144Z,98430.77
2018-05-04T18:11:49.592Z,98436.23
2018-05-04T18:14:17.023Z,98428.70
2018-05-04T18:16:44.488Z,98436.40
2018-05-04T18:19:11.929Z,98447.64
2018-05-04T18:21:39.388Z,98447.48
2018-05-04T18:24:06.915Z,98443.64
2018-05-04T18:26:34.354Z,98451.58
2018-05-04T18:29:01.830Z,98454.44
2018-05-04T18:31:29.510Z,98464.36
2018-05-04T18:33:56.950Z,98463.24
2018-05-04T18:36:24.391Z,98460.84
2018-05-04T18:38:51.870Z,98466.45
2018-05-04T18:41:19.324Z,98465.45
2018-05-04T18:43:46.780Z,98476.46
2018-05-04T18:46:14.486Z,98482.94
2018-05-04T18:48:41.939Z,98480.38
2018-05-04T18:51:09.396Z,98487.95
2018-05-04T18:53:36.837Z,98493.88
2018-05-04T18:56:04.276Z,98496.10
2018-05-04T18:58:31.724Z,98505.20
2018-05-04T19:00:59.179Z,98503.45
2018-05-04T19:03:26.617Z,98506.66
2018-05-04T19:05:54.142Z,98508.27
2018-05-04T19:08:21.739Z,98503.62
2018-05-04T19:10:49.282Z,98512.63
2018-05-04T19:13:16.780Z,98514.86
2018-05-04T19:15:44.239Z,98507.73
2018-05-04T19:18:11.689Z,98506.98
2018-05-04T19:20:39.208Z,98511.97
2018-05-04T19:23:06.654Z,98517.81
2018-05-04T19:25:34.164Z,98525.63
2018-05-04T19:28:01.614Z,98521.73
2018-05-04T19:30:29.098Z,98524.01
2018-05-04T19:32:56.602Z,98526.45
2018-05-04T19:35:24.090Z,98527.05
2018-05-04T19:37:51.545Z,98529.52
2018-05-04T19:40:19.101Z,98535.27
2018-05-04T19:42:46.547Z,98541.66
2018-05-04T19:45:14.007Z,98544.66
2018-05-04T19:47:41.464Z,98547.50
2018-05-04T19:50:08.910Z,98545.01
2018-05-04T19:52:36.436Z,98544.31
2018-05-04T19:55:03.883Z,98539.98
2018-05-04T19:57:31.385Z,98543.47
2018-05-04T19:59:58.833Z,98534.20
2018-05-04T20:02:26.329Z,98535.20
2018-05-04T20:04:53.935Z,98548.21
2018-05-04T20:07:21.398Z,98547.27
2018-05-04T20:09:48.883Z,98549.92
2018-05-04T20:12:16.315Z,98553.10
2018-05-04T20:14:43.755Z,98556.78
2018-05-04T20:17:11.278Z,98551.20
2018-05-04T20:19:38.822Z,98554.61
2018-05-04T20:22:06.284Z,98563.30
2018-05-04T20:24:33.727Z,98566.66
2018-05-04T20:27:01.169Z,98571.78
2018-05-04T20:29:28.619Z,98570.64
2018-05-04T20:31:56.058Z,98579.90
2018-05-04T20:34:23.533Z,98579.17
2018-05-04T20:36:51.008Z,98580.50
2018-05-04T20:39:18.500Z,98589.70
2018-05-04T20:41:46.045Z,98590.27
2018-05-04T20:44:13.620Z,98595.73
2018-05-04T20:46:41.074Z,98591.73
2018-05-04T20:49:08.514Z,98597.55
2018-05-04T20:51:35.987Z,98596.23
2018-05-04T20:54:03.494Z,98596.79
2018-05-04T20:56:30.928Z,98608.06
2018-05-04T20:58:58.409Z,98604.08
2018-05-04T21:01:25.838Z,98618.88
2018-05-04T21:03:53.354Z,98616.13
2018-05-04T21:06:20.847Z,98612.42
2018-05-04T21:08:48.467Z,98611.94
2018-05-04T21:11:15.914Z,98607.05
2018-05-04T21:13:43.426Z,98620.75
2018-05-04T21:16:10.886Z,98620.11
2018-05-04T21:18:38.359Z,98619.67
2018-05-04T21:21:05.860Z,98619.98
2018-05-04T21:23:33.325Z,98632.69
2018-05-04T21:26:00.775Z,98626.54
2018-05-04T21:28:28.285Z,98632.55
2018-05-04T21:30:55.734Z,98634.97
2018-05-04T21:33:23.182Z,98636.59
2018-05-04T21:35:50.720Z,98632.49
2018-05-04T21:38:18.130Z,98633.12
2018-05-04T21:40:45.577Z,98632.78
2018-05-04T21:43:13.048Z,98637.88
2018-05-04T21:45:40.523Z,98634.86
2018-05-04T21:48:08.073Z,98637.30
2018-05-04T21:50:35.558Z,98637.20
2018-05-04T21:53:03.037Z,98631.72
2018-05-04T21:55:30.624Z,98628.28
2018-05-04T21:57:58.085Z,98630.88
2018-05-04T22:00:25.541Z,98629.52
2018-05-04T22:02:53.106Z,98626.75
2018-05-04T22:05:20.560Z,98623.58
2018-05-04T22:07:48.049Z,98623.64
2018-05-04T22:10:15.504Z,98621.43
2018-05-04T22:12:42.974Z,98623.51
2018-05-04T22:15:10.559Z,98624.84
2018-05-04T22:17:38.118Z,98627.17
2018-05-04T22:26:01.086Z,98645.05
2018-05-04T22:28:28.646Z,98645.92
2018-05-04T22:30:56.231Z,98648.60
2018-05-04T22:33:23.824Z,98651.63
2018-05-04T22:35:51.385Z,98648.89
2018-05-04T22:38:18.985Z,98660.17
2018-05-04T22:40:46.514Z,98662.97
2018-05-04T22:43:14.046Z,98665.09
2018-05-04T22:45:41.604Z,98672.50
2018-05-04T22:48:09.148Z,98675.20
2018-05-04T22:50:36.750Z,98682.37
2018-05-04T22:53:04.296Z,98672.23
2018-05-04T22:55:31.913Z,98666.45
2018-05-04T22:57:59.493Z,98672.48
2018-05-04T23:00:27.064Z,98670.72
2018-05-04T23:02:54.595Z,98674.58
2018-05-04T23:05:22.194Z,98668.22
2018-05-04T23:07:49.791Z,98665.52
2018-05-04T23:10:17.482Z,98659.48
2018-05-04T23:12:45.005Z,98660.44
2018-05-04T23:15:12.559Z,98659.44
2018-05-04T23:17:40.156Z,98661.06
2018-05-04T23:20:07.675Z,98670.47
2018-05-04T23:22:35.510Z,98670.77
2018-05-04T23:25:03.049Z,98666.94
2018-05-04T23:27:30.597Z,98673.58
2018-05-04T23:29:58.168Z,98674.77
2018-05-04T23:32:25.750Z,98678.50
2018-05-04T23:34:53.321Z,98681.67
2018-05-04T23:37:20.838Z,98670.87
2018-05-04T23:39:48.447Z,98668.72
2018-05-04T23:42:15.990Z,98663.17
2018-05-04T23:44:43.596Z,98667.53
2018-05-04T23:47:11.170Z,98665.69
2018-05-04T23:49:38.678Z,98669.02
2018-05-04T23:52:06.396Z,98665.97
2018-05-04T23:54:33.957Z,98664.30
2018-05-04T23:57:01.537Z,98667.45
2018-05-04T23:59:29.195Z,98661.28
